Time;durP1;ratioP1;P1;durP2;ratioP2;P2;SDS_P1;SDS_P2;PMS_P1;PMS_P2;Temp;Humidity;BMP_temperature;BMP_pressure;BME280_temperature;BME280_humidity;BME280_pressure;Samples;Min_cycle;Max_cycle;Signal;HPM_P1;HPM_P2
2022/10/12 00:01:07;;;;;;;1999.90;999.90;;;5.10;99.90;;;;;;5090220;28;20420;-65
2022/10/12 00:03:34;;;;;;;1999.90;999.90;;;5.10;99.90;;;;;;5106846;27;20035;-65
2022/10/12 00:06:18;;;;;;;1999.90;999.90;;;5.10;99.90;;;;;;5107629;27;20096;-65
2022/10/12 00:08:46;;;;;;;1999.90;999.90;;;5.10;99.90;;;;;;5094894;27;20108;-65
2022/10/12 00:11:15;;;;;;;1999.90;999.90;;;5.10;99.90;;;;;;5107948;28;20092;-65
2022/10/12 00:13:41;;;;;;;1999.90;999.90;;;5.10;99.90;;;;;;5072788;28;20048;-65
2022/10/12 00:16:09;;;;;;;1999.90;999.90;;;5.10;99.90;;;;;;5109264;27;20046;-65
2022/10/12 00:18:35;;;;;;;1999.90;999.90;;;5.20;99.90;;;;;;5117860;27;20588;-65
2022/10/12 00:21:09;;;;;;;1999.90;999.90;;;5.10;99.90;;;;;;5110331;27;20046;-65
2022/10/12 00:23:36;;;;;;;1999.90;999.90;;;5.10;99.90;;;;;;5108018;28;20106;-65
2022/10/12 00:26:05;;;;;;;1999.90;999.90;;;5.10;99.90;;;;;;5106384;27;20559;-65
2022/10/12 00:28:32;;;;;;;1999.90;999.90;;;5.10;99.90;;;;;;5109596;27;20039;-65
2022/10/12 00:30:58;;;;;;;1999.90;999.90;;;5.10;99.90;;;;;;5072870;28;20048;-65
2022/10/12 00:33:24;;;;;;;1999.90;999.90;;;5.10;99.90;;;;;;5098757;28;20036;-65
2022/10/12 00:35:49;;;;;;;1999.90;999.90;;;5.10;99.90;;;;;;5072139;28;20047;-65
2022/10/12 00:38:15;;;;;;;1999.90;999.90;;;5.10;99.90;;;;;;5085225;28;20067;-65
2022/10/12 00:40:41;;;;;;;1999.90;999.90;;;5.10;99.90;;;;;;5107467;28;20040;-65
2022/10/12 00:43:30;;;;;;;1999.90;999.90;;;5.10;99.90;;;;;;5107153;28;20039;-65
2022/10/12 00:45:58;;;;;;;1999.90;999.90;;;5.10;99.90;;;;;;5096524;28;20062;-65
2022/10/12 00:48:24;;;;;;;1999.90;999.90;;;5.10;99.90;;;;;;5102789;28;20027;-65
2022/10/12 00:50:50;;;;;;;1999.90;999.90;;;5.00;99.90;;;;;;5107587;28;20039;-65
2022/10/12 00:53:22;;;;;;;1999.90;999.90;;;5.00;99.90;;;;;;5107862;28;20216;-65
2022/10/12 00:55:52;;;;;;;1999.90;999.90;;;5.00;99.90;;;;;;5088513;28;20042;-65
2022/10/12 00:58:18;;;;;;;1999.90;999.90;;;5.00;99.90;;;;;;5088423;28;20126;-65
2022/10/12 01:00:43;;;;;;;1999.90;999.90;;;5.00;99.90;;;;;;5088658;28;20118;-65
2022/10/12 01:03:12;;;;;;;1999.90;999.90;;;5.00;99.90;;;;;;5112248;28;20035;-65
2022/10/12 01:05:41;;;;;;;1999.90;999.90;;;5.00;99.90;;;;;;5116860;28;20088;-65
2022/10/12 01:08:06;;;;;;;1999.90;999.90;;;5.00;99.90;;;;;;5102645;28;20475;-65
2022/10/12 01:10:32;;;;;;;1999.90;999.90;;;5.00;99.90;;;;;;5107643;28;20031;-65
2022/10/12 01:12:59;;;;;;;1999.90;999.90;;;5.00;99.90;;;;;;5107178;28;20115;-65
2022/10/12 01:15:32;;;;;;;1999.90;999.90;;;5.00;99.90;;;;;;5088983;28;20523;-65
2022/10/12 01:18:01;;;;;;;;;;;5.00;99.90;;;;;;5093697;28;20039;-65
2022/10/12 01:20:56;;;;;;;1999.90;999.90;;;5.00;99.90;;;;;;5091733;28;19953;-65
2022/10/12 01:23:39;;;;;;;1999.90;999.90;;;5.00;99.90;;;;;;5073767;28;20501;-65
2022/10/12 01:26:40;;;;;;;1999.90;999.90;;;5.00;99.90;;;;;;5083146;28;20047;-65
2022/10/12 01:29:54;;;;;;;1999.90;999.90;;;5.00;99.90;;;;;;5111037;28;20381;-65
2022/10/12 01:32:57;;;;;;;1999.90;999.90;;;5.00;99.90;;;;;;5099020;28;20505;-65
2022/10/12 01:35:42;;;;;;;1999.90;999.90;;;4.90;99.90;;;;;;5105000;28;20078;-65
2022/10/12 01:38:26;;;;;;;1999.90;999.90;;;4.90;99.90;;;;;;5109633;27;20043;-65
2022/10/12 01:41:10;;;;;;;1999.90;999.90;;;4.90;99.90;;;;;;5106180;27;20044;-65
2022/10/12 01:43:39;;;;;;;1999.90;999.90;;;4.90;99.90;;;;;;5093480;28;20108;-65
2022/10/12 01:46:24;;;;;;;1999.90;999.90;;;4.90;99.90;;;;;;5110487;28;20032;-65
2022/10/12 01:48:53;;;;;;;1999.90;999.90;;;4.80;99.90;;;;;;5110705;28;20047;-65
2022/10/12 01:51:49;;;;;;;1999.90;999.90;;;4.80;99.90;;;;;;5088588;28;20493;-65
2022/10/12 01:54:42;;;;;;;1999.90;999.90;;;4.80;99.90;;;;;;5092838;27;20489;-65
2022/10/12 01:57:37;;;;;;;1999.90;999.90;;;4.90;99.90;;;;;;5101697;28;20088;-65
2022/10/12 02:00:08;;;;;;;1999.90;999.90;;;4.90;99.90;;;;;;5103640;27;20069;-65
2022/10/12 02:02:45;;;;;;;1999.90;999.90;;;4.90;99.90;;;;;;5119727;27;20039;-65
2022/10/12 02:05:50;;;;;;;1999.90;999.90;;;4.90;99.90;;;;;;5102043;28;20130;-65
2022/10/12 02:08:25;;;;;;;1999.90;999.90;;;5.00;99.90;;;;;;5103161;27;20063;-65
2022/10/12 02:11:05;;;;;;;1999.90;999.90;;;5.00;99.90;;;;;;5110862;28;20730;-65
2022/10/12 02:13:35;;;;;;;1999.90;999.90;;;5.00;99.90;;;;;;5110835;27;20515;-65
2022/10/12 02:16:06;;;;;;;1999.90;999.90;;;5.10;99.90;;;;;;5094644;28;20078;-65
2022/10/12 02:18:34;;;;;;;1999.90;999.90;;;5.10;99.90;;;;;;5103198;27;20042;-65
2022/10/12 02:21:00;;;;;;;1999.90;999.90;;;5.20;99.90;;;;;;5117433;27;20039;-65
2022/10/12 02:23:27;;;;;;;1999.90;999.90;;;5.20;99.90;;;;;;5118488;27;20046;-65
2022/10/12 02:25:57;;;;;;;1999.90;999.90;;;5.30;99.90;;;;;;5090597;28;20058;-65
2022/10/12 02:28:26;;;;;;;1999.90;999.90;;;5.30;99.90;;;;;;5086098;28;20048;-65
2022/10/12 02:30:58;;;;;;;1999.90;999.90;;;5.40;99.90;;;;;;5109786;28;20114;-65
2022/10/12 02:33:36;;;;;;;1999.90;999.90;;;5.40;99.90;;;;;;5106910;28;20469;-65
2022/10/12 02:36:09;;;;;;;1999.90;999.90;;;5.40;99.90;;;;;;5083359;28;20043;-65
2022/10/12 02:38:39;;;;;;;1999.90;999.90;;;5.50;99.90;;;;;;5097775;27;20097;-65
2022/10/12 02:41:10;;;;;;;1999.90;999.90;;;5.50;99.90;;;;;;5108227;27;20477;-65
2022/10/12 02:43:49;;;;;;;1999.90;999.90;;;5.50;99.90;;;;;;5090524;28;20059;-64
2022/10/12 02:46:18;;;;;;;1999.90;999.90;;;5.50;99.90;;;;;;5109741;27;20050;-65
2022/10/12 02:48:46;;;;;;;1999.90;999.90;;;5.50;99.90;;;;;;5088131;28;20089;-65
2022/10/12 02:51:12;;;;;;;1999.90;999.90;;;5.50;99.90;;;;;;5090410;28;20039;-65
2022/10/12 02:53:39;;;;;;;1999.90;999.90;;;5.40;99.90;;;;;;5109850;28;20488;-65
2022/10/12 02:56:13;;;;;;;1999.90;999.90;;;5.40;99.90;;;;;;5109786;27;20135;-65
2022/10/12 02:58:42;;;;;;;1999.90;999.90;;;5.40;99.90;;;;;;5099689;28;20047;-65
2022/10/12 03:01:07;;;;;;;1999.90;999.90;;;5.40;99.90;;;;;;5104817;27;20480;-65
2022/10/12 03:03:33;;;;;;;1999.90;999.90;;;5.40;99.90;;;;;;5092659;28;20035;-65
2022/10/12 03:05:58;;;;;;;1999.90;999.90;;;5.30;99.90;;;;;;5109026;27;20074;-65
2022/10/12 03:08:24;;;;;;;1999.90;999.90;;;5.30;99.90;;;;;;5085426;28;20529;-65
2022/10/12 03:10:49;;;;;;;1999.90;999.90;;;5.30;99.90;;;;;;5107471;28;20045;-65
2022/10/12 03:13:15;;;;;;;1999.90;999.90;;;5.40;99.90;;;;;;5117871;27;20047;-65
2022/10/12 03:15:40;;;;;;;1999.90;999.90;;;5.40;99.90;;;;;;5097156;28;20463;-65
2022/10/12 03:18:06;;;;;;;1999.90;999.90;;;5.40;99.90;;;;;;5119872;27;20627;-65
2022/10/12 03:20:31;;;;;;;1999.90;999.90;;;5.30;99.90;;;;;;5078657;28;20574;-65
2022/10/12 03:22:57;;;;;;;1999.90;999.90;;;5.30;99.90;;;;;;5117038;27;20031;-65
2022/10/12 03:25:23;;;;;;;1999.90;999.90;;;5.30;99.90;;;;;;5074990;28;20051;-65
2022/10/12 03:27:48;;;;;;;1999.90;999.90;;;5.30;99.90;;;;;;5087836;27;20378;-65
2022/10/12 03:30:14;;;;;;;1999.90;999.90;;;5.30;99.90;;;;;;5109150;27;20195;-65
2022/10/12 03:32:40;;;;;;;1999.90;999.90;;;5.30;99.90;;;;;;5107422;27;20039;-65
2022/10/12 03:35:06;;;;;;;1999.90;999.90;;;5.30;99.90;;;;;;5106281;27;20039;-65
2022/10/12 03:37:31;;;;;;;1999.90;999.90;;;5.30;99.90;;;;;;5108453;28;20047;-65
2022/10/12 03:39:57;;;;;;;1999.90;999.90;;;5.30;99.90;;;;;;5106631;27;20477;-65
2022/10/12 03:42:22;;;;;;;1999.90;999.90;;;5.40;99.90;;;;;;5109133;28;20661;-65
2022/10/12 03:44:48;;;;;;;1999.90;999.90;;;5.40;99.90;;;;;;5104202;28;20522;-65
2022/10/12 03:47:13;;;;;;;1999.90;999.90;;;5.40;99.90;;;;;;5089233;28;20083;-65
2022/10/12 03:49:39;;;;;;;1999.90;999.90;;;5.40;99.90;;;;;;5090459;28;20370;-65
2022/10/12 03:52:05;;;;;;;1999.90;999.90;;;5.40;99.90;;;;;;5082412;28;20386;-65
2022/10/12 03:54:30;;;;;;;1999.90;999.90;;;5.40;99.90;;;;;;5091493;28;20460;-65
2022/10/12 03:56:56;;;;;;;1999.90;999.90;;;5.40;99.90;;;;;;5108467;27;20511;-65
2022/10/12 03:59:21;;;;;;;1999.90;999.90;;;5.40;99.90;;;;;;5088766;28;20036;-65
2022/10/12 04:01:47;;;;;;;1999.90;999.90;;;5.40;99.90;;;;;;5108144;28;20424;-65
2022/10/12 04:04:13;;;;;;;1999.90;999.90;;;5.40;99.90;;;;;;5072898;28;20035;-65
2022/10/12 04:06:38;;;;;;;1999.90;999.90;;;5.40;99.90;;;;;;5106643;28;20578;-65
2022/10/12 04:09:04;;;;;;;1999.90;999.90;;;5.40;99.90;;;;;;5114055;27;20489;-65
2022/10/12 04:11:29;;;;;;;1999.90;999.90;;;5.50;99.90;;;;;;5089139;28;20474;-65
2022/10/12 04:13:55;;;;;;;1999.90;999.90;;;5.50;99.90;;;;;;5108212;28;20500;-65
2022/10/12 04:16:21;;;;;;;1999.90;999.90;;;5.50;99.90;;;;;;5088027;28;20057;-64
2022/10/12 04:18:46;;;;;;;1999.90;999.90;;;5.40;99.90;;;;;;5077739;28;20124;-65
2022/10/12 04:21:14;;;;;;;1999.90;999.90;;;5.40;99.90;;;;;;5111791;27;20042;-65
2022/10/12 04:23:41;;;;;;;1999.90;999.90;;;5.40;99.90;;;;;;5108150;28;20408;-65
2022/10/12 04:26:07;;;;;;;1999.90;999.90;;;5.40;99.90;;;;;;5089304;28;20055;-65
2022/10/12 04:28:33;;;;;;;1999.90;999.90;;;5.40;99.90;;;;;;5071754;28;20087;-65
2022/10/12 04:30:58;;;;;;;1999.90;999.90;;;5.40;99.90;;;;;;5109550;27;20035;-65
2022/10/12 04:33:24;;;;;;;1999.90;999.90;;;5.40;99.90;;;;;;5108283;27;20036;-65
2022/10/12 04:35:50;;;;;;;1999.90;999.90;;;5.50;99.90;;;;;;5107950;27;20044;-65
2022/10/12 04:38:15;;;;;;;1999.90;999.90;;;5.60;99.90;;;;;;5108599;28;20472;-65
2022/10/12 04:40:45;;;;;;;1999.90;999.90;;;5.50;99.90;;;;;;5089568;28;20446;-65
2022/10/12 04:43:11;;;;;;;1999.90;999.90;;;5.50;99.90;;;;;;5088549;28;20058;-65
2022/10/12 04:45:36;;;;;;;1999.90;999.90;;;5.50;99.90;;;;;;5088868;28;20056;-65
2022/10/12 04:48:02;;;;;;;1999.90;999.90;;;5.50;99.90;;;;;;5088831;28;20043;-65
2022/10/12 04:50:27;;;;;;;1999.90;999.90;;;5.50;99.90;;;;;;5107568;28;20165;-65
2022/10/12 04:52:53;;;;;;;1999.90;999.90;;;5.50;99.90;;;;;;5074633;28;20039;-65
2022/10/12 04:55:18;;;;;;;1999.90;999.90;;;5.40;99.90;;;;;;5101206;28;20115;-65
2022/10/12 04:57:44;;;;;;;1999.90;999.90;;;5.40;99.90;;;;;;5103472;28;20077;-65
2022/10/12 05:00:10;;;;;;;1999.90;999.90;;;5.40;99.90;;;;;;5102375;28;20038;-65
2022/10/12 05:02:36;;;;;;;1999.90;999.90;;;5.40;99.90;;;;;;5109140;28;20035;-65
2022/10/12 05:05:01;;;;;;;1999.90;999.90;;;5.30;99.90;;;;;;5107258;28;20504;-65
2022/10/12 05:07:27;;;;;;;1999.90;999.90;;;5.30;99.90;;;;;;5106851;28;20476;-65
2022/10/12 05:09:52;;;;;;;1999.90;999.90;;;5.30;99.90;;;;;;5091682;27;20043;-65
2022/10/12 05:12:18;;;;;;;1999.90;999.90;;;5.30;99.90;;;;;;5111836;27;20035;-65
2022/10/12 05:14:43;;;;;;;1999.90;999.90;;;5.20;99.90;;;;;;5123629;27;20485;-65
2022/10/12 05:17:10;;;;;;;1999.90;999.90;;;5.20;99.90;;;;;;5110988;28;20043;-65
2022/10/12 05:19:35;;;;;;;1999.90;999.90;;;5.10;99.90;;;;;;5112175;27;20412;-65
2022/10/12 05:22:01;;;;;;;1999.90;999.90;;;5.20;99.90;;;;;;5098753;28;20072;-65
2022/10/12 05:24:27;;;;;;;1999.90;999.90;;;5.10;99.90;;;;;;5109390;28;20046;-65
2022/10/12 05:26:53;;;;;;;1999.90;999.90;;;5.10;99.90;;;;;;5092587;28;20515;-66
2022/10/12 05:29:18;;;;;;;1999.90;999.90;;;5.10;99.90;;;;;;5093533;28;20039;-65
2022/10/12 05:31:44;;;;;;;1999.90;999.90;;;5.10;99.90;;;;;;5110553;28;20039;-65
2022/10/12 05:34:09;;;;;;;1999.90;999.90;;;5.00;99.90;;;;;;5111395;27;20085;-65
2022/10/12 05:36:35;;;;;;;1999.90;999.90;;;5.00;99.90;;;;;;5111052;28;20051;-65
2022/10/12 05:39:00;;;;;;;1999.90;999.90;;;4.90;99.90;;;;;;5112794;27;20088;-65
2022/10/12 05:41:26;;;;;;;1999.90;999.90;;;4.90;99.90;;;;;;5116925;27;20040;-65
2022/10/12 05:43:52;;;;;;;1999.90;999.90;;;4.80;99.90;;;;;;5100004;28;20059;-65
2022/10/12 05:46:18;;;;;;;1999.90;999.90;;;4.80;99.90;;;;;;5094194;28;20047;-65
2022/10/12 05:48:43;;;;;;;1999.90;999.90;;;4.80;99.90;;;;;;5087936;28;20105;-65
2022/10/12 05:51:09;;;;;;;1999.90;999.90;;;4.80;99.90;;;;;;5088099;28;20103;-65
2022/10/12 05:53:35;;;;;;;1999.90;999.90;;;4.80;99.90;;;;;;5111677;27;20043;-65
2022/10/12 05:56:01;;;;;;;1999.90;999.90;;;4.80;99.90;;;;;;5119322;27;20484;-65
2022/10/12 05:58:28;;;;;;;1999.90;999.90;;;4.80;99.90;;;;;;5120452;27;20083;-65
2022/10/12 06:00:55;;;;;;;1999.90;999.90;;;4.80;99.90;;;;;;5127614;27;20047;-65
2022/10/12 06:03:21;;;;;;;1999.90;999.90;;;4.80;99.90;;;;;;5112754;27;20485;-65
2022/10/12 06:05:46;;;;;;;1999.90;999.90;;;4.80;99.90;;;;;;5110813;27;20516;-65
2022/10/12 06:08:13;;;;;;;1999.90;999.90;;;4.90;99.90;;;;;;5115734;27;20039;-65
2022/10/12 06:10:46;;;;;;;1999.90;999.90;;;4.90;99.90;;;;;;5120089;27;20044;-65
2022/10/12 06:13:12;;;;;;;1999.90;999.90;;;4.90;99.90;;;;;;5085716;28;20053;-65
2022/10/12 06:15:37;;;;;;;1999.90;999.90;;;4.90;99.90;;;;;;5083699;28;20135;-65
2022/10/12 06:18:03;;;;;;;1999.90;999.90;;;4.90;99.90;;;;;;5099681;28;20063;-65
2022/10/12 06:20:28;;;;;;;1999.90;999.90;;;5.00;99.90;;;;;;5110434;28;20047;-65
2022/10/12 06:22:54;;;;;;;1999.90;999.90;;;5.00;99.90;;;;;;5109514;28;20052;-65
2022/10/12 06:25:19;;;;;;;1999.90;999.90;;;5.00;99.90;;;;;;5109991;28;20050;-65
2022/10/12 06:27:45;;;;;;;1999.90;999.90;;;5.00;99.90;;;;;;5109587;28;20046;-65
2022/10/12 06:30:12;;;;;;;1999.90;999.90;;;5.00;99.90;;;;;;5110254;28;20503;-65
2022/10/12 06:32:37;;;;;;;1999.90;999.90;;;5.00;99.90;;;;;;5113791;27;20044;-65
2022/10/12 06:35:03;;;;;;;1999.90;999.90;;;5.10;99.90;;;;;;5107802;27;20058;-65
2022/10/12 06:37:29;;;;;;;1999.90;999.90;;;5.10;99.90;;;;;;5116938;27;20489;-65
2022/10/12 06:39:55;;;;;;;1999.90;999.90;;;5.20;99.90;;;;;;5099552;27;20051;-65
2022/10/12 06:42:21;;;;;;;1999.90;999.90;;;5.20;99.90;;;;;;5104849;28;20035;-65
2022/10/12 06:44:46;;;;;;;1999.90;999.90;;;5.20;99.90;;;;;;5111664;27;20055;-65
2022/10/12 06:47:12;;;;;;;1999.90;999.90;;;5.30;99.90;;;;;;5110199;27;20122;-65
2022/10/12 06:49:37;;;;;;;1999.90;999.90;;;5.40;99.90;;;;;;5105570;27;20085;-65
2022/10/12 06:52:03;;;;;;;1999.90;999.90;;;5.40;99.90;;;;;;5092958;28;20032;-65
2022/10/12 06:54:29;;;;;;;1999.90;999.90;;;5.50;99.90;;;;;;5111582;27;20083;-65
2022/10/12 06:56:54;;;;;;;1999.90;999.90;;;5.60;99.90;;;;;;5087616;28;20100;-65
2022/10/12 06:59:21;;;;;;;1999.90;999.90;;;5.60;99.90;;;;;;5106699;27;20480;-65
2022/10/12 07:01:48;;;;;;;1999.90;999.90;;;5.70;99.90;;;;;;5090817;28;20405;-65
2022/10/12 07:04:14;;;;;;;1999.90;999.90;;;5.80;99.90;;;;;;5119495;27;20031;-65
2022/10/12 07:06:40;;;;;;;1999.90;999.90;;;5.90;99.90;;;;;;5118617;27;20131;-65
2022/10/12 07:09:06;;;;;;;1999.90;999.90;;;6.00;99.90;;;;;;5111684;27;20119;-65
2022/10/12 07:11:34;;;;;;;1999.90;999.90;;;6.10;99.90;;;;;;5083278;28;20039;-66
2022/10/12 07:14:00;;;;;;;1999.90;999.90;;;6.20;99.90;;;;;;5095966;28;20510;-65
2022/10/12 07:16:25;;;;;;;1999.90;999.90;;;6.30;99.90;;;;;;5090583;28;20048;-66
2022/10/12 07:18:51;;;;;;;1999.90;999.90;;;6.40;99.90;;;;;;5090448;28;20478;-65
2022/10/12 07:21:16;;;;;;;1999.90;999.90;;;6.60;99.90;;;;;;5105054;27;20144;-65
2022/10/12 07:23:42;;;;;;;1999.90;999.90;;;6.70;99.90;;;;;;5114115;27;20073;-66
2022/10/12 07:26:08;;;;;;;1999.90;999.90;;;6.80;99.90;;;;;;5113513;27;20042;-66
2022/10/12 07:28:36;;;;;;;1999.90;999.90;;;6.90;99.90;;;;;;5106391;28;20028;-66
2022/10/12 07:31:03;;;;;;;1999.90;999.90;;;7.10;99.90;;;;;;5083233;27;20038;-66
2022/10/12 07:33:33;;;;;;;1999.90;999.90;;;7.30;99.90;;;;;;5097175;28;20481;-66
2022/10/12 07:36:00;;;;;;;1999.90;999.90;;;7.40;99.90;;;;;;5091425;28;20050;-66
2022/10/12 07:38:26;;;;;;;1999.90;999.90;;;7.50;99.90;;;;;;5110379;27;20451;-66
2022/10/12 07:40:52;;;;;;;1999.90;999.90;;;7.60;99.90;;;;;;5110954;27;20131;-66
2022/10/12 07:43:18;;;;;;;1999.90;999.90;;;7.80;99.90;;;;;;5112619;27;20048;-66
2022/10/12 07:45:44;;;;;;;1999.90;999.90;;;7.90;99.90;;;;;;5089884;28;20839;-66
2022/10/12 07:48:09;;;;;;;1999.90;999.90;;;8.00;99.90;;;;;;5051086;28;20071;-66
2022/10/12 07:50:35;;;;;;;1999.90;999.90;;;8.10;99.90;;;;;;5111084;27;20377;-66
2022/10/12 07:53:01;;;;;;;1999.90;999.90;;;8.30;99.90;;;;;;5115534;27;20078;-66
2022/10/12 07:55:26;;;;;;;1999.90;999.90;;;8.40;99.90;;;;;;5111152;27;20024;-66
2022/10/12 07:57:52;;;;;;;1999.90;999.90;;;8.50;99.90;;;;;;5109288;27;20047;-66
2022/10/12 08:00:19;;;;;;;1999.90;999.90;;;8.70;99.90;;;;;;5109108;28;20040;-65
2022/10/12 08:02:45;;;;;;;1999.90;999.90;;;8.90;99.90;;;;;;5106371;28;20068;-66
2022/10/12 08:05:11;;;;;;;1999.90;999.90;;;9.10;99.90;;;;;;5096422;28;20090;-66
2022/10/12 08:07:36;;;;;;;1999.90;999.90;;;9.20;99.90;;;;;;5108268;28;20100;-66
2022/10/12 08:10:02;;;;;;;1999.90;999.90;;;9.40;99.90;;;;;;5092995;28;20047;-66
2022/10/12 08:12:28;;;;;;;1999.90;999.90;;;9.40;99.90;;;;;;5095805;28;20108;-66
2022/10/12 08:14:53;;;;;;;1999.90;999.90;;;9.60;99.90;;;;;;5116802;27;20189;-66
2022/10/12 08:17:19;;;;;;;1999.90;999.90;;;9.80;99.90;;;;;;5068652;28;20043;-66
2022/10/12 08:19:44;;;;;;;1999.90;999.90;;;10.00;99.90;;;;;;5107944;27;20039;-66
2022/10/12 08:22:11;;;;;;;1999.90;999.90;;;10.20;99.90;;;;;;5107635;28;20130;-66
2022/10/12 08:24:37;;;;;;;1999.90;999.90;;;10.30;99.90;;;;;;5082084;28;20443;-66
2022/10/12 08:27:02;;;;;;;1999.90;999.90;;;10.40;99.90;;;;;;5101634;28;20374;-66
2022/10/12 08:29:28;;;;;;;1999.90;999.90;;;10.50;99.90;;;;;;5106665;27;20039;-66
2022/10/12 08:31:53;;;;;;;1999.90;999.90;;;10.50;99.90;;;;;;5066563;28;20047;-67
2022/10/12 08:34:19;;;;;;;1999.90;999.90;;;10.50;99.90;;;;;;5088801;28;20392;-66
2022/10/12 08:36:45;;;;;;;1999.90;999.90;;;10.70;99.90;;;;;;5083612;28;20046;-66
2022/10/12 08:39:10;;;;;;;1999.90;999.90;;;10.80;99.90;;;;;;5082064;28;20046;-66
2022/10/12 08:41:47;;;;;;;1999.90;999.90;;;10.80;99.90;;;;;;5071655;28;20043;-66
2022/10/12 08:44:31;;;;;;;1999.90;999.90;;;10.80;99.90;;;;;;5102882;28;20138;-66
2022/10/12 08:47:02;;;;;;;1999.90;999.90;;;10.80;99.90;;;;;;5108402;28;20559;-66
2022/10/12 08:49:30;;;;;;;1999.90;999.90;;;10.90;99.90;;;;;;5072573;28;20031;-66
2022/10/12 08:51:59;;;;;;;1999.90;999.90;;;10.90;99.90;;;;;;5074848;28;20674;-66
2022/10/12 08:54:31;;;;;;;1999.90;999.90;;;11.10;99.90;;;;;;5108233;28;20077;-66
2022/10/12 08:56:57;;;;;;;1999.90;999.90;;;11.30;99.90;;;;;;5076784;28;20044;-67
2022/10/12 08:59:22;;;;;;;1999.90;999.90;;;11.50;99.90;;;;;;5097792;28;20058;-66
2022/10/12 09:01:58;;;;;;;1999.90;999.90;;;11.70;99.90;;;;;;5064677;28;20046;-66
2022/10/12 09:04:45;;;;;;;1999.90;999.90;;;12.20;99.90;;;;;;5071713;28;20100;-66
2022/10/12 09:07:19;;;;;;;1999.90;999.90;;;12.90;99.90;;;;;;5072302;28;20503;-66
2022/10/12 09:10:09;;;;;;;1999.90;999.90;;;13.70;99.90;;;;;;5090990;28;20043;-66
2022/10/12 09:12:50;;;;;;;1999.90;999.90;;;14.30;99.90;;;;;;5074415;28;20040;-66
2022/10/12 09:15:23;;;;;;;1999.90;999.90;;;14.80;99.90;;;;;;5104114;28;20038;-66
2022/10/12 09:17:54;;;;;;;1999.90;999.90;;;15.30;99.90;;;;;;5114354;27;20040;-66
2022/10/12 09:20:19;;;;;;;1999.90;999.90;;;15.60;99.90;;;;;;5089757;28;20076;-66
2022/10/12 09:22:48;;;;;;;1999.90;999.90;;;15.70;99.90;;;;;;5072729;28;20501;-66
2022/10/12 09:25:16;;;;;;;1999.90;999.90;;;15.90;99.90;;;;;;5101460;28;20047;-66
2022/10/12 09:27:44;;;;;;;1999.90;999.90;;;16.00;99.90;;;;;;5102467;28;20669;-66
2022/10/12 09:30:16;;;;;;;1999.90;999.90;;;16.10;99.90;;;;;;5096776;28;20393;-66
2022/10/12 09:32:58;;;;;;;1999.90;999.90;;;16.20;99.90;;;;;;5105864;28;20170;-66
2022/10/12 09:35:23;;;;;;;1999.90;999.90;;;16.30;99.90;;;;;;5104060;28;20374;-66
2022/10/12 09:37:52;;;;;;;1999.90;999.90;;;16.30;99.90;;;;;;5106111;28;20093;-66
2022/10/12 09:40:38;;;;;;;1999.90;999.90;;;16.30;99.90;;;;;;5106875;28;20090;-66
2022/10/12 09:43:05;;;;;;;1999.90;999.90;;;16.30;99.90;;;;;;5090067;28;20055;-66
2022/10/12 09:45:33;;;;;;;1999.90;999.90;;;16.20;99.90;;;;;;5112563;28;20396;-66
2022/10/12 09:48:20;;;;;;;1999.90;999.90;;;16.20;99.90;;;;;;5100529;28;20040;-67
2022/10/12 09:50:56;;;;;;;1999.90;999.90;;;16.10;99.90;;;;;;5085692;28;20043;-66
2022/10/12 09:53:41;;;;;;;1999.90;999.90;;;15.80;99.90;;;;;;5107101;28;20041;-66
2022/10/12 09:56:11;;;;;;;1999.90;999.90;;;15.50;99.90;;;;;;5086867;28;20065;-66
2022/10/12 09:58:48;;;;;;;1999.90;999.90;;;15.40;99.90;;;;;;5093392;27;20388;-66
2022/10/12 10:01:34;;;;;;;1999.90;999.90;;;15.50;99.90;;;;;;5105290;27;20058;-66
2022/10/12 10:04:13;;;;;;;1999.90;999.90;;;15.60;99.90;;;;;;5103228;28;20047;-66
2022/10/12 10:06:42;;;;;;;1999.90;999.90;;;15.80;99.90;;;;;;5104051;27;20043;-66
2022/10/12 10:09:26;;;;;;;1999.90;999.90;;;16.00;99.90;;;;;;5085435;27;20036;-66
2022/10/12 10:11:51;;;;;;;1999.90;999.90;;;16.10;99.90;;;;;;5105716;27;20115;-66
2022/10/12 10:14:17;;;;;;;1999.90;999.90;;;16.10;99.90;;;;;;5116708;27;20146;-66
2022/10/12 10:16:49;;;;;;;1999.90;999.90;;;16.20;99.90;;;;;;5086156;28;20051;-66
2022/10/12 10:19:20;;;;;;;1999.90;999.90;;;16.10;99.90;;;;;;5096589;27;20416;-66
2022/10/12 10:21:46;;;;;;;1999.90;999.90;;;16.20;99.90;;;;;;5092829;27;20074;-66
2022/10/12 10:24:26;;;;;;;1999.90;999.90;;;16.40;99.90;;;;;;5084512;28;20516;-66
2022/10/12 10:27:00;;;;;;;1999.90;999.90;;;16.50;99.90;;;;;;5107661;28;20046;-66
2022/10/12 10:29:33;;;;;;;1999.90;999.90;;;16.60;99.90;;;;;;5104644;27;20032;-66
2022/10/12 10:32:27;;;;;;;1999.90;999.90;;;16.80;99.90;;;;;;5090562;28;20053;-66
2022/10/12 10:35:11;;;;;;;1999.90;999.90;;;16.90;99.90;;;;;;5103265;27;20038;-66
2022/10/12 10:37:56;;;;;;;1999.90;999.90;;;17.10;99.90;;;;;;5105467;27;20788;-66
2022/10/12 10:40:41;;;;;;;1999.90;999.90;;;17.20;99.90;;;;;;5098440;28;20046;-66
2022/10/12 10:43:28;;;;;;;1999.90;999.90;;;17.20;99.90;;;;;;5106906;28;20086;-66
2022/10/12 10:46:20;;;;;;;1999.90;999.90;;;17.20;99.90;;;;;;5110596;27;20187;-66
2022/10/12 10:48:57;;;;;;;1999.90;999.90;;;17.20;99.90;;;;;;5109718;28;20159;-66
2022/10/12 10:51:49;;;;;;;1999.90;999.90;;;17.30;99.90;;;;;;5106636;27;20035;-66
2022/10/12 10:54:27;;;;;;;1999.90;999.90;;;17.40;99.90;;;;;;5094321;28;20172;-66
2022/10/12 10:57:17;;;;;;;1999.90;999.90;;;17.40;99.90;;;;;;5084230;28;20047;-66
2022/10/12 11:00:01;;;;;;;1999.90;999.90;;;17.40;99.90;;;;;;5083141;28;20133;-66
2022/10/12 11:02:43;;;;;;;1999.90;999.90;;;17.50;99.90;;;;;;5087215;28;20047;-66
2022/10/12 11:05:16;;;;;;;1999.90;999.90;;;17.60;99.90;;;;;;5100171;28;20044;-66
2022/10/12 11:07:54;;;;;;;1999.90;999.90;;;17.60;99.90;;;;;;5084705;27;20044;-65
2022/10/12 11:10:21;;;;;;;1999.90;999.90;;;17.60;99.90;;;;;;5070362;28;20040;-65
2022/10/12 11:12:53;;;;;;;1999.90;999.90;;;17.50;99.90;;;;;;5099371;28;20419;-66
2022/10/12 11:15:28;;;;;;;1999.90;999.90;;;17.40;99.90;;;;;;5105817;28;20288;-66
2022/10/12 11:18:10;;;;;;;1999.90;999.90;;;17.30;99.90;;;;;;5088451;28;20126;-65
2022/10/12 11:20:53;;;;;;;1999.90;999.90;;;17.30;99.90;;;;;;5108266;27;20443;-65
2022/10/12 11:23:45;;;;;;;1999.90;999.90;;;17.10;99.90;;;;;;5086383;28;20081;-65
2022/10/12 11:26:19;;;;;;;1999.90;999.90;;;17.20;99.90;;;;;;5106523;27;20497;-66
2022/10/12 11:28:45;;;;;;;1999.90;999.90;;;17.30;99.90;;;;;;5107566;27;20043;-65
2022/10/12 11:31:36;;;;;;;1999.90;999.90;;;17.40;99.90;;;;;;5096988;27;20087;-66
2022/10/12 11:34:07;;;;;;;1999.90;999.90;;;17.50;99.90;;;;;;5105391;27;20071;-65
2022/10/12 11:36:37;;;;;;;1999.90;999.90;;;17.50;99.90;;;;;;5095346;27;20060;-66
2022/10/12 11:39:14;;;;;;;1999.90;999.90;;;17.50;99.90;;;;;;5089091;28;20043;-66
2022/10/12 11:41:45;;;;;;;1999.90;999.90;;;17.50;99.90;;;;;;5094063;27;20316;-66
2022/10/12 11:44:28;;;;;;;1999.90;999.90;;;17.60;99.90;;;;;;5114105;27;20075;-66
2022/10/12 11:47:01;;;;;;;1999.90;999.90;;;17.60;99.90;;;;;;5087765;28;20122;-66
2022/10/12 11:49:35;;;;;;;1999.90;999.90;;;17.70;99.90;;;;;;5110279;27;20027;-66
2022/10/12 11:52:09;;;;;;;1999.90;999.90;;;17.70;99.90;;;;;;5087298;28;20485;-66
2022/10/12 11:54:38;;;;;;;1999.90;999.90;;;17.80;99.90;;;;;;5110339;27;20042;-66
2022/10/12 11:57:09;;;;;;;1999.90;999.90;;;17.80;99.90;;;;;;5099520;28;20047;-66
2022/10/12 11:59:47;;;;;;;1999.90;999.90;;;17.80;99.90;;;;;;5093747;27;20089;-66
2022/10/12 12:02:32;;;;;;;1999.90;999.90;;;17.70;99.90;;;;;;5093585;28;20050;-66
2022/10/12 12:04:58;;;;;;;1999.90;999.90;;;17.60;99.90;;;;;;5106711;28;20112;-66
2022/10/12 12:07:40;;;;;;;1999.90;999.90;;;17.60;99.90;;;;;;5086504;28;20104;-66
2022/10/12 12:10:35;;;;;;;1999.90;999.90;;;17.60;99.90;;;;;;5088881;28;20074;-65
2022/10/12 12:13:11;;;;;;;1999.90;999.90;;;17.50;99.90;;;;;;5080697;28;20396;-65
2022/10/12 12:15:51;;;;;;;1999.90;999.90;;;17.40;99.90;;;;;;5078751;28;20547;-65
2022/10/12 12:18:19;;;;;;;1999.90;999.90;;;17.30;99.90;;;;;;5106240;27;20042;-66
2022/10/12 12:20:45;;;;;;;1999.90;999.90;;;17.20;99.90;;;;;;5104965;28;20035;-66
2022/10/12 12:23:29;;;;;;;1999.90;999.90;;;17.10;99.90;;;;;;5102945;28;20400;-66